createdAt,value
2023-11-30T00:00:40.206Z,78091.53
2023-11-30T00:02:12.937Z,78119.22
2023-11-30T00:03:45.944Z,78121.22
2023-11-30T00:05:21.232Z,78115.28
2023-11-30T00:06:55.726Z,78154.84
2023-11-30T00:08:28.544Z,78123.19
2023-11-30T00:10:01.215Z,78099.44
2023-11-30T00:11:35.236Z,78137.03
2023-11-30T00:13:07.940Z,78135.06
2023-11-30T00:14:40.650Z,78127.16
2023-11-30T00:16:13.280Z,78117.25
2023-11-30T00:17:46.202Z,78117.25
2023-11-30T00:19:19.110Z,78113.31
2023-11-30T00:20:51.915Z,78146.94
2023-11-30T00:22:24.614Z,78117.25
2023-11-30T00:23:57.313Z,78119.22
2023-11-30T00:25:30.332Z,78127.16
2023-11-30T00:27:03.149Z,78115.28
2023-11-30T00:28:35.939Z,78119.22
2023-11-30T00:30:08.986Z,78109.34
2023-11-30T00:31:41.832Z,78091.53
2023-11-30T00:33:14.763Z,78111.31
2023-11-30T00:34:47.751Z,78095.50
2023-11-30T00:36:20.387Z,78113.31
2023-11-30T00:37:53.069Z,78095.50
2023-11-30T00:39:26.124Z,78089.56
2023-11-30T00:40:58.902Z,78119.22
2023-11-30T00:42:31.801Z,78119.22
2023-11-30T00:44:04.978Z,78107.38
2023-11-30T00:45:37.750Z,78101.44
2023-11-30T00:47:10.850Z,78089.56
2023-11-30T00:48:43.743Z,78091.53
2023-11-30T00:50:16.351Z,78089.56
2023-11-30T00:51:49.013Z,78073.75
2023-11-30T00:53:21.917Z,78071.75
2023-11-30T00:54:55.069Z,78097.47
2023-11-30T00:56:28.092Z,78103.41
2023-11-30T00:58:00.925Z,78119.22
2023-11-30T00:59:33.900Z,78115.28
2023-11-30T01:01:06.804Z,78109.34
2023-11-30T01:02:39.946Z,78103.41
2023-11-30T01:04:12.872Z,78164.72
2023-11-30T01:05:45.831Z,78135.06
2023-11-30T01:07:18.684Z,78156.81
2023-11-30T01:08:52.058Z,78123.19
2023-11-30T01:10:24.855Z,78129.13
2023-11-30T01:11:57.847Z,78117.25
2023-11-30T01:13:30.657Z,78127.16
2023-11-30T01:15:04.147Z,78135.06
2023-11-30T01:16:37.341Z,78142.97
2023-11-30T01:18:10.804Z,78123.19
2023-11-30T01:19:43.649Z,78142.97
2023-11-30T01:21:16.422Z,78146.94
2023-11-30T01:22:49.257Z,78178.56
2023-11-30T01:24:22.058Z,78166.72
2023-11-30T01:25:55.081Z,78174.63
2023-11-30T01:27:27.779Z,78152.88
2023-11-30T01:29:00.656Z,78164.72
2023-11-30T01:30:33.610Z,78218.16
2023-11-30T01:32:06.954Z,78190.44
2023-11-30T01:33:39.806Z,78166.72
2023-11-30T01:35:15.765Z,78182.53
2023-11-30T01:36:48.356Z,78172.66
2023-11-30T01:38:21.087Z,78168.69
2023-11-30T01:39:53.860Z,78172.66
2023-11-30T01:41:26.675Z,78174.63
2023-11-30T01:42:59.364Z,78170.66
2023-11-30T01:44:35.956Z,78184.50
2023-11-30T01:46:10.554Z,78172.66
2023-11-30T01:47:44.410Z,78190.44
2023-11-30T01:49:17.511Z,78194.41
2023-11-30T01:50:50.229Z,78208.25
2023-11-30T01:52:23.140Z,78226.06
2023-11-30T01:53:56.588Z,78202.31
2023-11-30T01:55:29.339Z,78194.41
2023-11-30T01:57:02.495Z,78182.53
2023-11-30T01:58:35.290Z,78212.22
2023-11-30T02:00:08.550Z,78164.72
2023-11-30T02:01:47.241Z,78184.50
2023-11-30T02:03:21.436Z,78198.34
2023-11-30T02:04:55.879Z,78194.41
2023-11-30T02:06:29.079Z,78182.53
2023-11-30T02:08:02.664Z,78176.59
2023-11-30T02:09:35.284Z,78176.59
2023-11-30T02:11:08.333Z,78206.28
2023-11-30T02:12:42.288Z,78202.31
2023-11-30T02:14:16.010Z,78186.50
2023-11-30T02:15:48.996Z,78162.75
2023-11-30T02:17:21.893Z,78186.50
2023-11-30T02:18:54.668Z,78198.34
2023-11-30T02:20:27.451Z,78160.78
2023-11-30T02:22:00.184Z,78170.66
2023-11-30T02:23:33.347Z,78154.84
2023-11-30T02:25:06.463Z,78158.78
2023-11-30T02:26:39.057Z,78146.94
2023-11-30T02:28:16.920Z,78148.91
2023-11-30T02:29:49.844Z,78156.81
2023-11-30T02:31:22.922Z,78158.78
2023-11-30T02:32:55.879Z,78172.66
2023-11-30T02:34:28.866Z,78166.72
2023-11-30T02:36:01.674Z,78162.75
2023-11-30T02:37:34.469Z,78168.69
2023-11-30T02:39:08.340Z,78162.75
2023-11-30T02:40:41.147Z,78180.56
2023-11-30T02:42:13.945Z,78180.56
2023-11-30T02:43:46.665Z,78194.41
2023-11-30T02:45:19.774Z,78180.56
2023-11-30T02:46:52.771Z,78158.78
2023-11-30T02:48:26.224Z,78182.53
2023-11-30T02:49:59.000Z,78196.38
2023-11-30T02:51:31.871Z,78146.94
2023-11-30T02:53:04.578Z,78172.66
2023-11-30T02:54:37.193Z,78139.03
2023-11-30T02:56:10.223Z,78172.66
2023-11-30T02:57:43.092Z,78194.41
2023-11-30T02:59:16.108Z,78174.63
2023-11-30T03:00:49.284Z,78188.47
2023-11-30T03:02:22.069Z,78154.84
2023-11-30T03:03:54.754Z,78162.75
2023-11-30T03:05:27.751Z,78154.84
2023-11-30T03:07:00.367Z,78166.72
2023-11-30T03:08:33.196Z,78170.66
2023-11-30T03:10:06.629Z,78172.66
2023-11-30T03:11:40.711Z,78142.97
2023-11-30T03:13:13.454Z,78142.97
2023-11-30T03:14:47.473Z,78142.97
2023-11-30T03:16:27.469Z,78180.56
2023-11-30T03:18:00.461Z,78158.78
2023-11-30T03:19:33.409Z,78160.78
2023-11-30T03:21:06.273Z,78182.53
2023-11-30T03:22:39.314Z,78170.66
2023-11-30T03:24:12.545Z,78176.59
2023-11-30T03:25:45.455Z,78194.41
2023-11-30T03:27:18.179Z,78194.41
2023-11-30T03:28:51.767Z,78178.56
2023-11-30T03:30:24.874Z,78160.78
2023-11-30T03:31:57.725Z,78178.56
2023-11-30T03:33:30.542Z,78172.66
2023-11-30T03:35:06.795Z,78186.50
2023-11-30T03:36:41.006Z,78178.56
2023-11-30T03:38:13.781Z,78152.88
2023-11-30T03:39:46.683Z,78158.78
2023-11-30T03:41:22.518Z,78176.59
2023-11-30T03:42:56.608Z,78166.72
2023-11-30T03:44:29.512Z,78180.56
2023-11-30T03:46:02.399Z,78188.47
2023-11-30T03:47:35.290Z,78178.56
2023-11-30T03:49:08.425Z,78178.56
2023-11-30T03:50:41.790Z,78174.63
2023-11-30T03:52:14.549Z,78188.47
2023-11-30T03:53:48.760Z,78192.44
2023-11-30T03:55:21.615Z,78198.34
2023-11-30T03:56:54.500Z,78170.66
2023-11-30T03:58:27.176Z,78182.53
2023-11-30T04:00:00.292Z,78178.56
2023-11-30T04:01:33.271Z,78172.66
2023-11-30T04:03:06.184Z,78188.47
2023-11-30T04:04:39.555Z,78166.72
2023-11-30T04:06:18.800Z,78172.66
2023-11-30T04:07:51.501Z,78198.34
2023-11-30T04:09:24.334Z,78182.53
2023-11-30T04:10:57.132Z,78200.34
2023-11-30T04:12:30.342Z,78190.44
2023-11-30T04:14:07.535Z,78190.44
2023-11-30T04:15:41.026Z,78202.31
2023-11-30T04:17:16.673Z,78174.63
2023-11-30T04:18:49.681Z,78190.44
2023-11-30T04:20:22.723Z,78190.44
2023-11-30T04:21:55.731Z,78186.50
2023-11-30T04:23:28.505Z,78202.31
2023-11-30T04:25:01.594Z,78202.31
2023-11-30T04:26:35.325Z,78218.16
2023-11-30T04:28:08.078Z,78202.31
2023-11-30T04:29:41.250Z,78184.50
2023-11-30T04:31:14.186Z,78178.56
2023-11-30T04:32:46.705Z,78198.34
2023-11-30T04:34:20.335Z,78182.53
2023-11-30T04:35:53.224Z,78190.44
2023-11-30T04:37:26.064Z,78174.63
2023-11-30T04:38:59.066Z,78166.72
2023-11-30T04:40:31.929Z,78194.41
2023-11-30T04:42:04.710Z,78208.25
2023-11-30T04:43:38.788Z,78230.00
2023-11-30T04:45:11.796Z,78206.28
2023-11-30T04:46:45.003Z,78210.22
2023-11-30T04:48:18.207Z,78202.31
2023-11-30T04:49:51.622Z,78194.41
2023-11-30T04:51:24.752Z,78212.22
2023-11-30T04:52:57.640Z,78239.91
2023-11-30T04:54:30.359Z,78196.38
2023-11-30T04:56:03.206Z,78212.22
2023-11-30T04:57:36.014Z,78214.19
2023-11-30T04:59:09.293Z,78222.09
2023-11-30T05:00:43.494Z,78233.97
2023-11-30T05:02:16.424Z,78204.28
2023-11-30T05:03:51.509Z,78212.22
2023-11-30T05:05:24.519Z,78222.09
2023-11-30T05:06:57.459Z,78208.25
2023-11-30T05:08:30.155Z,78202.31
2023-11-30T05:10:02.730Z,78230.00
2023-11-30T05:11:36.290Z,78226.06
2023-11-30T05:13:08.972Z,78235.94
2023-11-30T05:14:41.641Z,78247.81
2023-11-30T05:16:16.105Z,78228.03
2023-11-30T05:17:48.918Z,78241.88
2023-11-30T05:19:21.586Z,78222.09
2023-11-30T05:20:54.664Z,78204.28
2023-11-30T05:22:27.449Z,78194.41
2023-11-30T05:24:00.252Z,78196.38
2023-11-30T05:25:33.822Z,78212.22
2023-11-30T05:27:06.924Z,78210.22
2023-11-30T05:28:40.180Z,78230.00
2023-11-30T05:30:16.727Z,78222.09
2023-11-30T05:31:49.761Z,78208.25
2023-11-30T05:33:25.664Z,78186.50
2023-11-30T05:34:58.231Z,78146.94
2023-11-30T05:36:31.060Z,78206.28
2023-11-30T05:38:04.627Z,78196.38
2023-11-30T05:39:38.189Z,78170.66
2023-11-30T05:41:10.928Z,78182.53
2023-11-30T05:42:43.941Z,78146.94
2023-11-30T05:44:17.270Z,78135.06
2023-11-30T05:45:49.804Z,78152.88
2023-11-30T05:47:22.873Z,78135.06
2023-11-30T05:48:56.606Z,78141.00
2023-11-30T05:50:29.714Z,78176.59
2023-11-30T05:52:02.642Z,78160.78
2023-11-30T05:53:35.487Z,78154.84
2023-11-30T05:55:09.101Z,78156.81
2023-11-30T05:56:42.111Z,78141.00
2023-11-30T05:58:14.804Z,78152.88
2023-11-30T05:59:47.500Z,78158.78
2023-11-30T06:01:20.276Z,78164.72
2023-11-30T06:02:52.804Z,78123.19
2023-11-30T06:04:25.846Z,78148.91
2023-11-30T06:05:58.747Z,78113.31
2023-11-30T06:07:31.438Z,78119.22
2023-11-30T06:09:05.070Z,78111.31
2023-11-30T06:10:38.251Z,78131.09
2023-11-30T06:12:10.739Z,78103.41
2023-11-30T06:13:43.406Z,78111.31
2023-11-30T06:15:16.866Z,78111.31
2023-11-30T06:16:52.884Z,78127.16
2023-11-30T06:18:26.434Z,78139.03
2023-11-30T06:19:59.155Z,78127.16
2023-11-30T06:21:31.835Z,78077.69
2023-11-30T06:23:08.044Z,78042.09
2023-11-30T06:24:40.666Z,78048.03
2023-11-30T06:26:19.759Z,78004.50
2023-11-30T06:27:53.531Z,77982.75
2023-11-30T06:29:26.861Z,77996.59
2023-11-30T06:30:59.447Z,78028.25
2023-11-30T06:32:38.168Z,78014.41
2023-11-30T06:34:10.852Z,78026.25
2023-11-30T06:35:43.412Z,77996.59
2023-11-30T06:37:16.828Z,77941.22
2023-11-30T06:38:49.535Z,77905.59
2023-11-30T06:40:22.248Z,77873.94
2023-11-30T06:41:56.123Z,77862.09
2023-11-30T06:43:30.343Z,77889.78
2023-11-30T06:45:02.971Z,77868.00
2023-11-30T06:46:37.792Z,77877.91
2023-11-30T06:48:12.230Z,77907.56
2023-11-30T06:49:47.068Z,77915.50
2023-11-30T06:51:19.973Z,77921.44
2023-11-30T06:52:52.590Z,77893.72
2023-11-30T06:54:25.542Z,77893.72
2023-11-30T06:55:58.393Z,77921.44
2023-11-30T06:57:31.232Z,77921.44
2023-11-30T06:59:04.164Z,77901.66
2023-11-30T07:00:37.678Z,77885.81
2023-11-30T07:02:12.025Z,77870.00
2023-11-30T07:03:49.154Z,77840.31
2023-11-30T07:05:32.889Z,77842.31
2023-11-30T07:07:06.237Z,77824.50
2023-11-30T07:08:39.192Z,77832.41
2023-11-30T07:10:14.465Z,77784.94
2023-11-30T07:11:47.384Z,77800.75
2023-11-30T07:13:20.945Z,77877.91
2023-11-30T07:14:55.040Z,77860.09
2023-11-30T07:16:36.229Z,77830.44
2023-11-30T07:18:15.644Z,77866.03
2023-11-30T07:19:48.321Z,77826.47
2023-11-30T07:21:21.212Z,77802.75
2023-11-30T07:22:58.492Z,77767.13
2023-11-30T07:24:31.752Z,77771.09
2023-11-30T07:26:10.924Z,77739.44
2023-11-30T07:27:50.761Z,77717.69
2023-11-30T07:29:26.944Z,77707.81
2023-11-30T07:31:00.490Z,77737.47
2023-11-30T07:32:34.682Z,77757.25
2023-11-30T07:34:21.642Z,77767.13
2023-11-30T07:35:56.249Z,77782.97
2023-11-30T07:37:31.359Z,77816.59
2023-11-30T07:39:04.771Z,77804.72
2023-11-30T07:40:38.636Z,77786.91
2023-11-30T07:42:11.885Z,77800.75
2023-11-30T07:43:45.008Z,77786.91
2023-11-30T07:45:17.864Z,77788.91
2023-11-30T07:46:50.624Z,77779.00
2023-11-30T07:48:23.380Z,77775.06
2023-11-30T07:49:56.444Z,77749.34
2023-11-30T07:51:31.390Z,77790.88
2023-11-30T07:53:09.123Z,77782.97
2023-11-30T07:54:42.468Z,77800.75
2023-11-30T07:56:15.684Z,77840.31
2023-11-30T07:57:50.150Z,77864.06
2023-11-30T07:59:23.112Z,77885.81
2023-11-30T08:01:00.240Z,77862.09
2023-11-30T08:02:35.842Z,77842.31
2023-11-30T08:04:09.172Z,77840.31
2023-11-30T08:05:41.835Z,77905.59
2023-11-30T08:07:14.623Z,77889.78
2023-11-30T08:08:47.462Z,77887.78
2023-11-30T08:10:20.289Z,77873.94
2023-11-30T08:11:52.964Z,77913.50
2023-11-30T08:13:25.764Z,77935.28
2023-11-30T08:14:58.420Z,77953.06
2023-11-30T08:16:31.936Z,77931.31
2023-11-30T08:18:05.229Z,77943.19
2023-11-30T08:19:38.282Z,77941.22
2023-11-30T08:21:10.944Z,77933.28
2023-11-30T08:22:43.958Z,77941.22
2023-11-30T08:24:16.781Z,77937.25
2023-11-30T08:25:49.378Z,77953.06
2023-11-30T08:27:25.311Z,77955.06
2023-11-30T08:28:58.291Z,77929.34
2023-11-30T08:30:31.330Z,77905.59
2023-11-30T08:32:04.435Z,77929.34
2023-11-30T08:33:37.399Z,77885.81
2023-11-30T08:35:10.254Z,77887.78
2023-11-30T08:36:43.229Z,77917.47
2023-11-30T08:38:17.568Z,77925.38
2023-11-30T08:39:50.389Z,77877.91
2023-11-30T08:41:23.291Z,77905.59
2023-11-30T08:42:59.031Z,77862.09
2023-11-30T08:44:32.050Z,77917.47
2023-11-30T08:46:05.219Z,77862.09
2023-11-30T08:47:38.368Z,77897.69
2023-11-30T08:49:13.609Z,77881.88
2023-11-30T08:50:46.521Z,77907.56
2023-11-30T08:52:22.524Z,77901.66
2023-11-30T08:53:58.118Z,77893.72
2023-11-30T08:55:31.054Z,77889.78
2023-11-30T08:57:05.706Z,77923.41
2023-11-30T08:58:38.752Z,77901.66
2023-11-30T09:00:14.803Z,77913.50
2023-11-30T09:01:47.729Z,77883.84
2023-11-30T09:03:20.485Z,77885.81
2023-11-30T09:04:53.542Z,77907.56
2023-11-30T09:06:26.735Z,77915.50
2023-11-30T09:07:59.791Z,77933.28
2023-11-30T09:09:32.670Z,77933.28
2023-11-30T09:11:06.765Z,77909.56
2023-11-30T09:12:40.221Z,77931.31
2023-11-30T09:14:13.359Z,77915.50
2023-11-30T09:15:46.124Z,77921.44
2023-11-30T09:17:19.601Z,77913.50
2023-11-30T09:18:53.407Z,77943.19
2023-11-30T09:20:26.617Z,77929.34
2023-11-30T09:21:59.440Z,77925.38
2023-11-30T09:23:32.392Z,77901.66
2023-11-30T09:25:06.361Z,77895.72
2023-11-30T09:26:39.283Z,77889.78
2023-11-30T09:28:12.462Z,77862.09
2023-11-30T09:29:45.177Z,77907.56
2023-11-30T09:31:18.438Z,77915.50
2023-11-30T09:32:57.032Z,77929.34
2023-11-30T09:34:31.558Z,77913.50
2023-11-30T09:36:04.757Z,77925.38
2023-11-30T09:37:37.485Z,77945.16
2023-11-30T09:39:10.346Z,77901.66
2023-11-30T09:40:43.023Z,77921.44
2023-11-30T09:42:17.676Z,77925.38
2023-11-30T09:43:50.443Z,77887.78
2023-11-30T09:45:24.780Z,77929.34
2023-11-30T09:46:58.219Z,77913.50
2023-11-30T09:48:31.986Z,77877.91
2023-11-30T09:50:05.597Z,77870.00
2023-11-30T09:51:45.722Z,77879.88
2023-11-30T09:53:19.274Z,77868.00
2023-11-30T09:54:56.528Z,77873.94
2023-11-30T09:56:32.687Z,77885.81
2023-11-30T09:58:08.879Z,77909.56
2023-11-30T09:59:42.074Z,77927.34
2023-11-30T10:01:15.193Z,77921.44
2023-11-30T10:02:53.708Z,77929.34
2023-11-30T10:04:30.616Z,77925.38
2023-11-30T10:06:03.323Z,77929.34
2023-11-30T10:07:39.062Z,77901.66
2023-11-30T10:09:15.783Z,77915.50
2023-11-30T10:10:49.668Z,77881.88
2023-11-30T10:12:24.871Z,77875.94
2023-11-30T10:14:00.504Z,77877.91
2023-11-30T10:17:22.792Z,77860.09
2023-11-30T10:18:55.873Z,77871.97
2023-11-30T10:20:28.950Z,77873.94
2023-11-30T10:22:01.741Z,77899.66
2023-11-30T10:23:34.641Z,77864.06
2023-11-30T10:25:11.010Z,77871.97
2023-11-30T10:26:47.545Z,77875.94
2023-11-30T10:28:22.463Z,77877.91
2023-11-30T10:29:57.034Z,77873.94
2023-11-30T10:31:30.677Z,77881.88
2023-11-30T10:33:05.552Z,77903.63
2023-11-30T10:34:47.311Z,77919.44
2023-11-30T10:36:21.073Z,77935.28
2023-11-30T10:37:54.784Z,77937.25
2023-11-30T10:39:32.769Z,77931.31
2023-11-30T10:41:13.970Z,77917.47
2023-11-30T10:42:48.175Z,77929.34
2023-11-30T10:44:23.925Z,77949.13
2023-11-30T10:45:59.714Z,77927.34
2023-11-30T10:47:33.259Z,77933.28
2023-11-30T10:49:07.035Z,77935.28
2023-11-30T10:50:40.376Z,77933.28
2023-11-30T10:52:13.317Z,77941.22
2023-11-30T10:53:52.213Z,77917.47
2023-11-30T10:55:26.474Z,77941.22
2023-11-30T10:57:00.706Z,77949.13
2023-11-30T10:58:34.034Z,77968.91
2023-11-30T11:00:07.231Z,77960.97
2023-11-30T11:01:41.351Z,77982.75
2023-11-30T11:03:17.183Z,77996.59
2023-11-30T11:04:50.924Z,77988.69
2023-11-30T11:06:27.193Z,78012.41
2023-11-30T11:08:00.781Z,78008.47
2023-11-30T11:09:43.305Z,78010.44
2023-11-30T11:11:16.062Z,77992.63
2023-11-30T11:12:50.652Z,78000.53
2023-11-30T11:14:42.045Z,78004.50
2023-11-30T11:16:14.998Z,78012.41
2023-11-30T11:17:54.349Z,78024.28
2023-11-30T11:19:31.709Z,78040.09
2023-11-30T11:21:04.397Z,78036.16
2023-11-30T11:22:37.206Z,78042.09
2023-11-30T11:24:09.868Z,78038.13
2023-11-30T11:25:42.745Z,78048.03
2023-11-30T11:27:35.938Z,78071.75
2023-11-30T11:29:08.766Z,78061.88
2023-11-30T11:30:46.187Z,78055.94
2023-11-30T11:32:20.682Z,78061.88
2023-11-30T11:33:55.153Z,78075.72
2023-11-30T11:35:28.647Z,78077.69
2023-11-30T11:37:01.238Z,78069.78
2023-11-30T11:38:34.148Z,78057.91
2023-11-30T11:40:07.130Z,78059.88
2023-11-30T11:41:40.297Z,78065.81
2023-11-30T11:43:13.315Z,78053.97
2023-11-30T11:44:46.314Z,78073.75
2023-11-30T11:46:19.420Z,78067.81
2023-11-30T11:47:53.137Z,78079.66
2023-11-30T11:49:26.208Z,78075.72
2023-11-30T11:51:01.565Z,78083.63
2023-11-30T11:52:34.737Z,78115.28
2023-11-30T11:54:07.939Z,78123.19
2023-11-30T11:55:41.018Z,78192.44
2023-11-30T11:57:13.902Z,78222.09
2023-11-30T11:58:47.199Z,78228.03
2023-11-30T12:00:21.933Z,78228.03
2023-11-30T12:01:55.861Z,78224.06
2023-11-30T12:03:30.026Z,78237.94
2023-11-30T12:05:16.643Z,78271.56
2023-11-30T12:06:49.432Z,78247.81
2023-11-30T12:08:29.667Z,78249.78
2023-11-30T12:10:02.733Z,78251.78
2023-11-30T12:11:35.714Z,78239.91
2023-11-30T12:13:09.439Z,78257.72
2023-11-30T12:14:42.653Z,78251.78
2023-11-30T12:16:15.809Z,78257.72
2023-11-30T12:17:48.762Z,78269.56
2023-11-30T12:19:22.680Z,78277.50
2023-11-30T12:20:55.981Z,78263.63
2023-11-30T12:22:28.739Z,78279.47
2023-11-30T12:24:01.801Z,78295.28
2023-11-30T12:25:34.471Z,78287.38
2023-11-30T12:27:07.554Z,78275.50
2023-11-30T12:28:40.348Z,78257.72
2023-11-30T12:30:13.599Z,78257.72
2023-11-30T12:31:46.312Z,78261.66
2023-11-30T12:33:19.526Z,78277.50
2023-11-30T12:34:54.522Z,78273.53
2023-11-30T12:36:27.262Z,78261.66
2023-11-30T12:38:00.222Z,78277.50
2023-11-30T12:39:32.971Z,78283.44
2023-11-30T12:41:05.771Z,78281.44
2023-11-30T12:42:38.732Z,78281.44
2023-11-30T12:44:11.774Z,78287.38
2023-11-30T12:45:44.932Z,78285.41
2023-11-30T12:47:18.097Z,78275.50
2023-11-30T12:48:50.844Z,78269.56
2023-11-30T12:50:23.708Z,78273.53
2023-11-30T12:51:56.467Z,78285.41
2023-11-30T12:53:29.299Z,78309.13
2023-11-30T12:55:02.288Z,78340.78
2023-11-30T12:56:35.426Z,78315.06
2023-11-30T12:58:10.843Z,78311.13
2023-11-30T12:59:43.919Z,78289.34
2023-11-30T13:01:17.602Z,78283.44
2023-11-30T13:02:50.440Z,78277.50
2023-11-30T13:04:23.774Z,78291.34
2023-11-30T13:05:56.577Z,78305.19
2023-11-30T13:07:29.297Z,78307.16
2023-11-30T13:09:02.136Z,78293.31
2023-11-30T13:10:35.031Z,78289.34
2023-11-30T13:12:07.731Z,78293.31
2023-11-30T13:13:42.582Z,78289.34
2023-11-30T13:15:18.187Z,78291.34
2023-11-30T13:16:51.059Z,78299.25
2023-11-30T13:18:24.060Z,78307.16
2023-11-30T13:19:56.711Z,78309.13
2023-11-30T13:21:29.360Z,78313.09
2023-11-30T13:23:02.419Z,78332.88
2023-11-30T13:24:34.976Z,78346.72
2023-11-30T13:26:07.985Z,78358.59
2023-11-30T13:27:43.894Z,78344.75
2023-11-30T13:29:16.950Z,78328.94
2023-11-30T13:30:49.794Z,78321.00
2023-11-30T13:32:22.517Z,78313.09
2023-11-30T13:33:55.175Z,78309.13
2023-11-30T13:35:27.633Z,78315.06
2023-11-30T13:37:01.371Z,78328.94
2023-11-30T13:38:35.186Z,78336.84
2023-11-30T13:40:09.206Z,78346.72
2023-11-30T13:41:41.802Z,78352.66
2023-11-30T13:43:14.382Z,78374.44
2023-11-30T13:44:47.082Z,78392.22
2023-11-30T13:46:19.977Z,78390.25
2023-11-30T13:47:53.109Z,78392.22
2023-11-30T13:49:27.694Z,78388.28
2023-11-30T13:51:02.299Z,78392.22
2023-11-30T13:52:37.126Z,78457.50
2023-11-30T13:54:09.790Z,78467.41
2023-11-30T13:55:42.374Z,78465.44
2023-11-30T13:57:14.915Z,78491.16
2023-11-30T13:58:47.726Z,78491.16
2023-11-30T14:00:21.196Z,78477.28
2023-11-30T14:01:53.845Z,78485.22
2023-11-30T14:03:26.778Z,78516.88
2023-11-30T14:05:00.073Z,78518.84
2023-11-30T14:06:33.551Z,78532.69
2023-11-30T14:08:06.249Z,78534.66
2023-11-30T14:09:39.128Z,78516.88
2023-11-30T14:11:14.199Z,78506.97
2023-11-30T14:12:46.851Z,78503.00
2023-11-30T14:14:19.706Z,78528.72
2023-11-30T14:15:52.639Z,78542.59
2023-11-30T14:17:26.280Z,78522.81
2023-11-30T14:18:59.334Z,78536.66
2023-11-30T14:20:32.104Z,78536.66
2023-11-30T14:22:04.863Z,78536.66
2023-11-30T14:23:37.617Z,78512.91
2023-11-30T14:25:11.231Z,78530.72
2023-11-30T14:26:44.722Z,78526.75
2023-11-30T14:28:18.720Z,78495.09
2023-11-30T14:29:52.718Z,78489.16
2023-11-30T14:31:25.364Z,78512.91
2023-11-30T14:32:58.141Z,78530.72
2023-11-30T14:34:33.843Z,78522.81
2023-11-30T14:36:07.789Z,78518.84
2023-11-30T14:37:40.491Z,78520.81
2023-11-30T14:39:14.364Z,78510.94
2023-11-30T14:40:47.550Z,78506.97
2023-11-30T14:42:22.175Z,78536.66
2023-11-30T14:43:55.245Z,78538.63
2023-11-30T14:45:28.463Z,78542.59
2023-11-30T14:47:01.058Z,78534.66
2023-11-30T14:48:33.819Z,78528.72
2023-11-30T14:50:08.677Z,78508.94
2023-11-30T14:51:41.350Z,78524.78
2023-11-30T14:53:14.537Z,78534.66
2023-11-30T14:54:53.497Z,78538.63
2023-11-30T14:56:26.999Z,78542.59
2023-11-30T14:57:59.836Z,78560.38
2023-11-30T14:59:33.275Z,78538.63
2023-11-30T15:01:09.665Z,78534.66
2023-11-30T15:02:43.351Z,78526.75
2023-11-30T15:04:17.317Z,78514.88
2023-11-30T15:05:50.404Z,78514.88
2023-11-30T15:07:24.721Z,78528.72
2023-11-30T15:08:57.678Z,78540.59
2023-11-30T15:10:32.084Z,78530.72
2023-11-30T15:12:07.731Z,78518.84
2023-11-30T15:13:40.551Z,78520.81
2023-11-30T15:15:15.722Z,78512.91
2023-11-30T15:16:50.514Z,78520.81
2023-11-30T15:18:23.145Z,78526.75
2023-11-30T15:19:56.290Z,78566.31
2023-11-30T15:21:30.179Z,78546.53
2023-11-30T15:23:02.948Z,78564.34
2023-11-30T15:24:35.770Z,78558.41
2023-11-30T15:26:08.869Z,78554.44
2023-11-30T15:27:42.597Z,78552.47
2023-11-30T15:29:16.172Z,78558.41
2023-11-30T15:30:49.487Z,78560.38
2023-11-30T15:32:22.542Z,78558.41
2023-11-30T15:33:55.630Z,78566.31
2023-11-30T15:35:30.171Z,78550.50
2023-11-30T15:37:06.120Z,78558.41
2023-11-30T15:38:40.468Z,78550.50
2023-11-30T15:40:13.912Z,78562.38
2023-11-30T15:41:52.130Z,78596.00
2023-11-30T15:43:25.414Z,78597.97
2023-11-30T15:44:58.816Z,78613.81
2023-11-30T15:46:32.995Z,78609.84
2023-11-30T15:48:07.383Z,78619.75
2023-11-30T15:49:41.402Z,78631.59
2023-11-30T15:51:14.722Z,78645.47
2023-11-30T15:52:50.643Z,78635.56
2023-11-30T15:54:23.638Z,78637.53
2023-11-30T15:55:57.045Z,78629.63
2023-11-30T15:57:29.788Z,78623.69
2023-11-30T15:59:05.125Z,78629.63
2023-11-30T16:00:38.312Z,78625.66
2023-11-30T16:02:11.454Z,78649.41
2023-11-30T16:03:44.628Z,78649.41
2023-11-30T16:05:17.630Z,78665.25
2023-11-30T16:06:51.279Z,78655.34
2023-11-30T16:08:25.362Z,78641.50
2023-11-30T16:09:59.161Z,78621.72
2023-11-30T16:11:38.649Z,78621.72
2023-11-30T16:13:12.184Z,78603.91
2023-11-30T16:14:45.285Z,78597.97
2023-11-30T16:16:18.469Z,78605.88
2023-11-30T16:17:52.815Z,78605.88
2023-11-30T16:19:27.948Z,78601.94
2023-11-30T16:21:01.700Z,78625.66
2023-11-30T16:22:35.229Z,78623.69
2023-11-30T16:24:14.221Z,78641.50
2023-11-30T16:25:49.587Z,78649.41
2023-11-30T16:27:23.136Z,78637.53
2023-11-30T16:28:56.930Z,78655.34
2023-11-30T16:30:29.973Z,78629.63
2023-11-30T16:32:02.820Z,78637.53
2023-11-30T16:33:36.444Z,78663.25
2023-11-30T16:35:10.719Z,78649.41
2023-11-30T16:36:45.634Z,78665.25
2023-11-30T16:38:18.752Z,78665.25
2023-11-30T16:39:55.862Z,78649.41
2023-11-30T16:41:29.168Z,78679.09
2023-11-30T16:43:02.508Z,78665.25
2023-11-30T16:44:35.360Z,78675.13
2023-11-30T16:46:10.317Z,78665.25
2023-11-30T16:47:43.658Z,78671.19
2023-11-30T16:49:16.969Z,78653.38
2023-11-30T16:50:50.276Z,78645.47
2023-11-30T16:52:24.053Z,78665.25
2023-11-30T16:53:58.281Z,78661.28
2023-11-30T16:55:33.348Z,78645.47
2023-11-30T16:57:06.217Z,78621.72
2023-11-30T16:58:39.957Z,78625.66
2023-11-30T17:00:13.728Z,78645.47
2023-11-30T17:01:51.416Z,78637.53
2023-11-30T17:03:27.137Z,78653.38
2023-11-30T17:05:01.043Z,78665.25
2023-11-30T17:06:37.967Z,78673.16
2023-11-30T17:08:14.598Z,78716.69
2023-11-30T17:09:50.144Z,78690.97
2023-11-30T17:11:24.090Z,78685.03
2023-11-30T17:13:01.734Z,78688.97
2023-11-30T17:14:35.477Z,78681.06
2023-11-30T17:16:10.128Z,78667.22
2023-11-30T17:17:47.196Z,78669.19
2023-11-30T17:19:23.634Z,78687.00
2023-11-30T17:20:56.883Z,78667.22
2023-11-30T17:22:31.209Z,78669.19
2023-11-30T17:24:04.904Z,78710.75
2023-11-30T17:25:59.655Z,78694.91
2023-11-30T17:27:39.202Z,78700.84
2023-11-30T17:29:12.719Z,78702.84
2023-11-30T17:30:49.031Z,78683.03
2023-11-30T17:32:22.698Z,78677.13
2023-11-30T17:33:56.756Z,78714.69
2023-11-30T17:35:30.194Z,78740.41
2023-11-30T17:37:03.586Z,78734.50
2023-11-30T17:38:37.925Z,78732.50
2023-11-30T17:40:12.459Z,78744.38
2023-11-30T17:41:47.465Z,78728.56
2023-11-30T17:43:20.953Z,78760.22
2023-11-30T17:44:54.228Z,78780.00
2023-11-30T17:46:29.395Z,78772.06
2023-11-30T17:48:05.262Z,78791.88
2023-11-30T17:49:38.613Z,78772.06
2023-11-30T17:51:19.573Z,78768.13
2023-11-30T17:53:00.698Z,78736.47
2023-11-30T17:54:37.429Z,78740.41
2023-11-30T17:56:10.930Z,78795.81
2023-11-30T17:57:44.794Z,78795.81
2023-11-30T17:59:18.560Z,78795.81
2023-11-30T18:00:54.058Z,78768.13
2023-11-30T18:02:28.165Z,78785.94
2023-11-30T18:04:01.619Z,78795.81
2023-11-30T18:05:34.973Z,78819.56
2023-11-30T18:07:11.401Z,78793.84
2023-11-30T18:08:44.284Z,78780.00
2023-11-30T18:10:17.475Z,78795.81
2023-11-30T18:11:51.873Z,78795.81
2023-11-30T18:13:25.909Z,78780.00
2023-11-30T18:14:58.922Z,78817.59
2023-11-30T18:16:31.821Z,78799.78
2023-11-30T18:18:04.706Z,78809.66
2023-11-30T18:19:37.648Z,78839.34
2023-11-30T18:21:12.309Z,78837.38
2023-11-30T18:22:52.687Z,78849.25
2023-11-30T18:24:34.846Z,78859.13